Nuray Senkaya — TCSN6 — position and weather

sailwx.info

Track history (hours):
 
Tides and Currents Weather Stations Pressure Air Temp Water Temp Dewpoint Dewpoint Depression Visibility Wind Speed Wind Dir Waves Ship Positions

Nuray Senkaya

Last reported at 2017-Sep-15 19:39 UTC. Time now 2017-Sep-24 07:04 UTC.
Position N 37°37' E 023°56'.
Warning: this ship's position is 8 days out of date.

Length 91 m; draft 4 m.

Type: Cargo ship. MMSI: 271000926.

Date/timePositionNaut miles runAvg speedWind from/ knotsBaromVisibWave heightAir tempDewpointWater temp
2017-Sep-15 19:39N 37°37' E 023°56'2 9.6
2017-Sep-15 19:27N 37°38' E 023°54'4 9.5
2017-Sep-15 19:00N 37°38' E 023°48'5 9.3
2017-Sep-15 18:30N 37°40' E 023°43'5 9.3
2017-Sep-15 18:00N 37°44' E 023°40'5 9.4
2017-Sep-15 17:30N 37°48' E 023°38'5 9.2
2017-Sep-15 17:00N 37°53' E 023°37'4 8.2
2017-Sep-15 16:30N 37°57' E 023°36'4 7.3
2017-Sep-15 16:00N 37°60' E 023°33'2 4.0
2017-Sep-15 15:25N 38°02' E 023°32'0 0.0
2017-Sep-15 14:58N 38°02' E 023°32'0 0.0
2017-Sep-15 14:28N 38°02' E 023°32'0 0.0
2017-Sep-15 13:58N 38°02' E 023°32'0 0.0
2017-Sep-15 13:25N 38°02' E 023°32'0 0.0
2017-Sep-15 12:58N 38°02' E 023°32'0 0.0
2017-Sep-15 12:28N 38°02' E 023°32'0 0.0
2017-Sep-15 11:58N 38°02' E 023°32'0 0.0
2017-Sep-15 11:28N 38°02' E 023°32'0 0.0
2017-Sep-15 10:55N 38°02' E 023°32'0 0.0
2017-Sep-15 10:28N 38°02' E 023°32'0 0.0
2017-Sep-15 09:58N 38°02' E 023°32'0 0.0
2017-Sep-15 09:25N 38°02' E 023°32'0 0.0
2017-Sep-15 08:58N 38°02' E 023°32'0 0.0
2017-Sep-15 08:28N 38°02' E 023°32'0 0.0
2017-Sep-15 07:55N 38°02' E 023°32'0 0.0
2017-Sep-15 07:25N 38°02' E 023°32'0 0.0
2017-Sep-15 06:52N 38°02' E 023°32'0 0.0
2017-Sep-15 06:28N 38°02' E 023°32'0 0.0
2017-Sep-15 05:58N 38°02' E 023°32'0 0.0
2017-Sep-15 05:28N 38°02' E 023°32'0 0.0
2017-Sep-15 04:58N 38°02' E 023°32'0 0.0
2017-Sep-15 04:28N 38°02' E 023°32'0 0.0
2017-Sep-15 03:58N 38°02' E 023°32'0 0.0
2017-Sep-15 03:28N 38°02' E 023°32'0 0.0
2017-Sep-15 02:58N 38°02' E 023°32'0 0.0
2017-Sep-15 02:28N 38°02' E 023°32'0 0.0
2017-Sep-15 01:58N 38°02' E 023°32'0 0.0
2017-Sep-15 01:31N 38°02' E 023°32'0 0.0
2017-Sep-15 00:58N 38°02' E 023°32'0 0.0
2017-Sep-15 00:28N 38°02' E 023°32'0 0.0
2017-Sep-14 23:58N 38°02' E 023°32'0 0.0
2017-Sep-14 23:30N 38°02' E 023°32'0 0.0
2017-Sep-14 23:00N 38°02' E 023°32'0 0.0
2017-Sep-14 22:30N 38°02' E 023°32'0 0.0
2017-Sep-14 22:00N 38°02' E 023°32'0 0.0
2017-Sep-14 21:30N 38°02' E 023°32'0 0.0
2017-Sep-14 21:00N 38°02' E 023°32'0 0.0
2017-Sep-14 20:30N 38°02' E 023°32'0 0.0
2017-Sep-14 20:00N 38°02' E 023°32'0 0.0
2017-Sep-14 19:30N 38°02' E 023°32'0 0.0
2017-Sep-14 19:00N 38°02' E 023°32'0 0.0
2017-Sep-14 18:30N 38°02' E 023°32'0 0.0
2017-Sep-14 17:54N 38°02' E 023°32'0 0.0
2017-Sep-14 17:24N 38°02' E 023°32'0 0.0
2017-Sep-14 17:00N 38°02' E 023°32'0 0.0
2017-Sep-14 16:30N 38°02' E 023°32'0 0.0
2017-Sep-14 16:00N 38°02' E 023°32'0 0.0
2017-Sep-14 15:30N 38°02' E 023°32'0 0.0
2017-Sep-14 15:00N 38°02' E 023°32'0 0.0
2017-Sep-14 14:30N 38°02' E 023°32'0 0.0
2017-Sep-14 14:00N 38°02' E 023°32'0 0.0
2017-Sep-14 13:30N 38°02' E 023°32'0 0.0
2017-Sep-14 13:00N 38°02' E 023°32'0 0.0
2017-Sep-14 12:30N 38°02' E 023°32'0 0.0
2017-Sep-14 12:00N 38°02' E 023°32'0 0.0
2017-Sep-14 11:30N 38°02' E 023°32'0 0.0
2017-Sep-14 10:51N 38°02' E 023°32'0 0.0
2017-Sep-14 10:30N 38°02' E 023°32'0 0.0
2017-Sep-14 10:00N 38°02' E 023°32'0 0.0
2017-Sep-14 09:30N 38°02' E 023°32'0 0.0
2017-Sep-14 09:00N 38°02' E 023°32'0 0.0
2017-Sep-14 08:30N 38°02' E 023°32'0 0.0
2017-Sep-14 08:00N 38°02' E 023°32'0 0.0
2017-Sep-14 07:30N 38°02' E 023°32'0 0.0
2017-Sep-14 06:57N 38°02' E 023°32'0 0.0
2017-Sep-14 06:30N 38°02' E 023°32'0 0.0
2017-Sep-14 06:00N 38°02' E 023°32'0 0.0
2017-Sep-14 05:30N 38°02' E 023°32'0 0.0
2017-Sep-14 04:57N 38°02' E 023°32'0 0.0
2017-Sep-14 04:24N 38°02' E 023°32'0 0.0
2017-Sep-14 03:57N 38°02' E 023°32'0 0.0
2017-Sep-14 03:24N 38°02' E 023°32'0 0.0
2017-Sep-14 02:57N 38°02' E 023°32'0 0.0
2017-Sep-14 02:30N 38°02' E 023°32'0 0.0
2017-Sep-14 01:57N 38°02' E 023°32'0 0.0
2017-Sep-14 01:30N 38°02' E 023°32'0 0.0
2017-Sep-14 00:57N 38°02' E 023°32'0 0.0
2017-Sep-14 00:27N 38°02' E 023°32'0 0.0
2017-Sep-13 23:57N 38°02' E 023°32'0 0.0
2017-Sep-13 23:30N 38°02' E 023°32'0 0.0
2017-Sep-13 22:57N 38°02' E 023°32'0 0.0
2017-Sep-13 22:21N 38°02' E 023°32'0 0.0
2017-Sep-13 22:00N 38°02' E 023°32'0 0.0
2017-Sep-13 21:27N 38°02' E 023°32'0 0.0
2017-Sep-13 20:54N 38°02' E 023°32'0 0.0
2017-Sep-13 20:30N 38°02' E 023°32'0 0.0
2017-Sep-13 19:57N 38°02' E 023°32'0 0.0
2017-Sep-13 19:27N 38°02' E 023°32'0 0.0
2017-Sep-13 18:54N 38°02' E 023°32'0 0.0
2017-Sep-13 18:27N 38°02' E 023°32'0 0.0
2017-Sep-13 17:57N 38°02' E 023°32'0 0.0
2017-Sep-13 17:21N 38°02' E 023°32'0 0.0
2017-Sep-13 16:57N 38°02' E 023°32'0 0.0
2017-Sep-13 16:27N 38°02' E 023°32'0 0.0
2017-Sep-13 16:00N 38°02' E 023°32'0 0.0
2017-Sep-13 15:30N 38°02' E 023°32'0 0.0
2017-Sep-13 15:00N 38°02' E 023°32'0 0.0
2017-Sep-13 14:30N 38°02' E 023°32'0 0.0
2017-Sep-13 13:59N 38°02' E 023°32'0 0.0
2017-Sep-13 13:29N 38°02' E 023°32'0 0.0
2017-Sep-13 12:59N 38°02' E 023°32'0 0.1
2017-Sep-13 12:29N 38°02' E 023°32'0 0.0
2017-Sep-13 11:59N 38°02' E 023°32'0 0.0
2017-Sep-13 11:29N 38°02' E 023°32'0 0.0
2017-Sep-13 10:59N 38°02' E 023°32'0 0.0
2017-Sep-13 10:29N 38°02' E 023°32'0 0.0
2017-Sep-13 09:59N 38°02' E 023°32'0 0.0
2017-Sep-13 09:26N 38°02' E 023°32'0 0.0
2017-Sep-13 08:59N 38°02' E 023°32'0 0.0
2017-Sep-13 08:26N 38°02' E 023°32'0 0.0
2017-Sep-13 08:00N 38°02' E 023°32'2 3.4
2017-Sep-13 07:30N 38°00' E 023°33'4 7.4
2017-Sep-13 07:00N 37°57' E 023°35'2 3.5
2017-Sep-13 06:30N 37°55' E 023°35'0 0.4
2017-Sep-13 06:00N 37°56' E 023°35'1 1.6
2017-Sep-13 05:30N 37°55' E 023°34'0 0.1
2017-Sep-13 04:58N 37°55' E 023°34'0 0.0
2017-Sep-13 04:28N 37°55' E 023°34'0 0.0
2017-Sep-13 03:58N 37°55' E 023°34'0 0.0
2017-Sep-13 03:28N 37°55' E 023°34'0 0.0
2017-Sep-13 02:52N 37°55' E 023°34'0 0.0
2017-Sep-13 02:28N 37°55' E 023°34'0 0.1
2017-Sep-13 01:58N 37°55' E 023°34'0 0.0
2017-Sep-13 01:28N 37°55' E 023°34'0 0.0
2017-Sep-13 00:52N 37°55' E 023°34'0 0.0
2017-Sep-13 00:28N 37°55' E 023°34'0 0.0
2017-Sep-12 23:58N 37°55' E 023°34'0 0.2
2017-Sep-12 23:28N 37°55' E 023°34'2 4.3
2017-Sep-12 23:00N 37°54' E 023°36'3 5.5
2017-Sep-12 22:30N 37°53' E 023°39'1 1.1
2017-Sep-12 22:00N 37°53' E 023°38'1 1.1
2017-Sep-12 21:30N 37°53' E 023°38'0 0.5
2017-Sep-12 21:00N 37°53' E 023°38'4 7.2
2017-Sep-12 20:30N 37°50' E 023°40'4 8.3
2017-Sep-12 20:00N 37°46' E 023°42'4 8.6
2017-Sep-12 19:30N 37°42' E 023°45'4 7.9
2017-Sep-12 19:00N 37°40' E 023°49'4 8.6
2017-Sep-12 18:30N 37°39' E 023°54'  
2017-Sep-09 10:40N 39°54' E 024°00'1 8.8
2017-Sep-09 10:30N 39°54' E 024°02'4 8.9
2017-Sep-09 10:00N 39°55' E 024°08'5 9.1
2017-Sep-09 09:29N 39°56' E 024°14'6 9.1
2017-Sep-09 08:53N 39°57' E 024°21'9 8.9
2017-Sep-09 07:53N 39°58' E 024°32'4 9.4
2017-Sep-09 07:30N 39°59' E 024°37'5 9.6
2017-Sep-09 06:59N 39°60' E 024°43'5 9.5
2017-Sep-09 06:30N 40°01' E 024°49'5 9.1
2017-Sep-09 06:00N 40°01' E 024°55'5 8.9
2017-Sep-09 05:28N 40°02' E 025°01'14 8.6
2017-Sep-09 03:48N 40°04' E 025°20'6 8.6
2017-Sep-09 03:08N 40°04' E 025°27'2 8.9
2017-Sep-09 02:56N 40°04' E 025°29'6 9.1
2017-Sep-09 02:18N 40°04' E 025°37'5 8.9
2017-Sep-09 01:43N 40°03' E 025°43'  
Track history (hours):
 
Tides and Currents Weather Stations Pressure Air Temp Water Temp Dewpoint Dewpoint Depression Visibility Wind Speed Wind Dir Waves Ship Positions

Nuray Senkaya

Last reported at 2017-Sep-15 19:39 UTC. Time now 2017-Sep-24 07:04 UTC.
Position N 37°37' E 023°56'.
Warning: this ship's position is 8 days out of date.

Length 91 m; draft 4 m.

Type: Cargo ship. MMSI: 271000926.

Date/timePositionNaut miles runAvg speedWind from/ knotsBaromVisibWave heightAir tempDewpointWater temp
2017-Sep-15 19:39N 37°37' E 023°56'2 9.6
2017-Sep-15 19:27N 37°38' E 023°54'4 9.5
2017-Sep-15 19:00N 37°38' E 023°48'5 9.3
2017-Sep-15 18:30N 37°40' E 023°43'5 9.3
2017-Sep-15 18:00N 37°44' E 023°40'5 9.4
2017-Sep-15 17:30N 37°48' E 023°38'5 9.2
2017-Sep-15 17:00N 37°53' E 023°37'4 8.2
2017-Sep-15 16:30N 37°57' E 023°36'4 7.3
2017-Sep-15 16:00N 37°60' E 023°33'2 4.0
2017-Sep-15 15:25N 38°02' E 023°32'0 0.0
2017-Sep-15 14:58N 38°02' E 023°32'0 0.0
2017-Sep-15 14:28N 38°02' E 023°32'0 0.0
2017-Sep-15 13:58N 38°02' E 023°32'0 0.0
2017-Sep-15 13:25N 38°02' E 023°32'0 0.0
2017-Sep-15 12:58N 38°02' E 023°32'0 0.0
2017-Sep-15 12:28N 38°02' E 023°32'0 0.0
2017-Sep-15 11:58N 38°02' E 023°32'0 0.0
2017-Sep-15 11:28N 38°02' E 023°32'0 0.0
2017-Sep-15 10:55N 38°02' E 023°32'0 0.0
2017-Sep-15 10:28N 38°02' E 023°32'0 0.0
2017-Sep-15 09:58N 38°02' E 023°32'0 0.0
2017-Sep-15 09:25N 38°02' E 023°32'0 0.0
2017-Sep-15 08:58N 38°02' E 023°32'0 0.0
2017-Sep-15 08:28N 38°02' E 023°32'0 0.0
2017-Sep-15 07:55N 38°02' E 023°32'0 0.0
2017-Sep-15 07:25N 38°02' E 023°32'0 0.0
2017-Sep-15 06:52N 38°02' E 023°32'0 0.0
2017-Sep-15 06:28N 38°02' E 023°32'0 0.0
2017-Sep-15 05:58N 38°02' E 023°32'0 0.0
2017-Sep-15 05:28N 38°02' E 023°32'0 0.0
2017-Sep-15 04:58N 38°02' E 023°32'0 0.0
2017-Sep-15 04:28N 38°02' E 023°32'0 0.0
2017-Sep-15 03:58N 38°02' E 023°32'0 0.0
2017-Sep-15 03:28N 38°02' E 023°32'0 0.0
2017-Sep-15 02:58N 38°02' E 023°32'0 0.0
2017-Sep-15 02:28N 38°02' E 023°32'0 0.0
2017-Sep-15 01:58N 38°02' E 023°32'0 0.0
2017-Sep-15 01:31N 38°02' E 023°32'0 0.0
2017-Sep-15 00:58N 38°02' E 023°32'0 0.0
2017-Sep-15 00:28N 38°02' E 023°32'0 0.0
2017-Sep-14 23:58N 38°02' E 023°32'0 0.0
2017-Sep-14 23:30N 38°02' E 023°32'0 0.0
2017-Sep-14 23:00N 38°02' E 023°32'0 0.0
2017-Sep-14 22:30N 38°02' E 023°32'0 0.0
2017-Sep-14 22:00N 38°02' E 023°32'0 0.0
2017-Sep-14 21:30N 38°02' E 023°32'0 0.0
2017-Sep-14 21:00N 38°02' E 023°32'0 0.0
2017-Sep-14 20:30N 38°02' E 023°32'0 0.0
2017-Sep-14 20:00N 38°02' E 023°32'0 0.0
2017-Sep-14 19:30N 38°02' E 023°32'0 0.0
2017-Sep-14 19:00N 38°02' E 023°32'0 0.0
2017-Sep-14 18:30N 38°02' E 023°32'0 0.0
2017-Sep-14 17:54N 38°02' E 023°32'0 0.0
2017-Sep-14 17:24N 38°02' E 023°32'0 0.0
2017-Sep-14 17:00N 38°02' E 023°32'0 0.0
2017-Sep-14 16:30N 38°02' E 023°32'0 0.0
2017-Sep-14 16:00N 38°02' E 023°32'0 0.0
2017-Sep-14 15:30N 38°02' E 023°32'0 0.0
2017-Sep-14 15:00N 38°02' E 023°32'0 0.0
2017-Sep-14 14:30N 38°02' E 023°32'0 0.0
2017-Sep-14 14:00N 38°02' E 023°32'0 0.0
2017-Sep-14 13:30N 38°02' E 023°32'0 0.0
2017-Sep-14 13:00N 38°02' E 023°32'0 0.0
2017-Sep-14 12:30N 38°02' E 023°32'0 0.0
2017-Sep-14 12:00N 38°02' E 023°32'0 0.0
2017-Sep-14 11:30N 38°02' E 023°32'0 0.0
2017-Sep-14 10:51N 38°02' E 023°32'0 0.0
2017-Sep-14 10:30N 38°02' E 023°32'0 0.0
2017-Sep-14 10:00N 38°02' E 023°32'0 0.0
2017-Sep-14 09:30N 38°02' E 023°32'0 0.0
2017-Sep-14 09:00N 38°02' E 023°32'0 0.0
2017-Sep-14 08:30N 38°02' E 023°32'0 0.0
2017-Sep-14 08:00N 38°02' E 023°32'0 0.0
2017-Sep-14 07:30N 38°02' E 023°32'0 0.0
2017-Sep-14 06:57N 38°02' E 023°32'0 0.0
2017-Sep-14 06:30N 38°02' E 023°32'0 0.0
2017-Sep-14 06:00N 38°02' E 023°32'0 0.0
2017-Sep-14 05:30N 38°02' E 023°32'0 0.0
2017-Sep-14 04:57N 38°02' E 023°32'0 0.0
2017-Sep-14 04:24N 38°02' E 023°32'0 0.0
2017-Sep-14 03:57N 38°02' E 023°32'0 0.0
2017-Sep-14 03:24N 38°02' E 023°32'0 0.0
2017-Sep-14 02:57N 38°02' E 023°32'0 0.0
2017-Sep-14 02:30N 38°02' E 023°32'0 0.0
2017-Sep-14 01:57N 38°02' E 023°32'0 0.0
2017-Sep-14 01:30N 38°02' E 023°32'0 0.0
2017-Sep-14 00:57N 38°02' E 023°32'0 0.0
2017-Sep-14 00:27N 38°02' E 023°32'0 0.0
2017-Sep-13 23:57N 38°02' E 023°32'0 0.0
2017-Sep-13 23:30N 38°02' E 023°32'0 0.0
2017-Sep-13 22:57N 38°02' E 023°32'0 0.0
2017-Sep-13 22:21N 38°02' E 023°32'0 0.0
2017-Sep-13 22:00N 38°02' E 023°32'0 0.0
2017-Sep-13 21:27N 38°02' E 023°32'0 0.0
2017-Sep-13 20:54N 38°02' E 023°32'0 0.0
2017-Sep-13 20:30N 38°02' E 023°32'0 0.0
2017-Sep-13 19:57N 38°02' E 023°32'0 0.0
2017-Sep-13 19:27N 38°02' E 023°32'0 0.0
2017-Sep-13 18:54N 38°02' E 023°32'0 0.0
2017-Sep-13 18:27N 38°02' E 023°32'0 0.0
2017-Sep-13 17:57N 38°02' E 023°32'0 0.0
2017-Sep-13 17:21N 38°02' E 023°32'0 0.0
2017-Sep-13 16:57N 38°02' E 023°32'0 0.0
2017-Sep-13 16:27N 38°02' E 023°32'0 0.0
2017-Sep-13 16:00N 38°02' E 023°32'0 0.0
2017-Sep-13 15:30N 38°02' E 023°32'0 0.0
2017-Sep-13 15:00N 38°02' E 023°32'0 0.0
2017-Sep-13 14:30N 38°02' E 023°32'0 0.0
2017-Sep-13 13:59N 38°02' E 023°32'0 0.0
2017-Sep-13 13:29N 38°02' E 023°32'0 0.0
2017-Sep-13 12:59N 38°02' E 023°32'0 0.1
2017-Sep-13 12:29N 38°02' E 023°32'0 0.0
2017-Sep-13 11:59N 38°02' E 023°32'0 0.0
2017-Sep-13 11:29N 38°02' E 023°32'0 0.0
2017-Sep-13 10:59N 38°02' E 023°32'0 0.0
2017-Sep-13 10:29N 38°02' E 023°32'0 0.0
2017-Sep-13 09:59N 38°02' E 023°32'0 0.0
2017-Sep-13 09:26N 38°02' E 023°32'0 0.0
2017-Sep-13 08:59N 38°02' E 023°32'0 0.0
2017-Sep-13 08:26N 38°02' E 023°32'0 0.0
2017-Sep-13 08:00N 38°02' E 023°32'2 3.4
2017-Sep-13 07:30N 38°00' E 023°33'4 7.4
2017-Sep-13 07:00N 37°57' E 023°35'2 3.5
2017-Sep-13 06:30N 37°55' E 023°35'0 0.4
2017-Sep-13 06:00N 37°56' E 023°35'1 1.6
2017-Sep-13 05:30N 37°55' E 023°34'0 0.1
2017-Sep-13 04:58N 37°55' E 023°34'0 0.0
2017-Sep-13 04:28N 37°55' E 023°34'0 0.0
2017-Sep-13 03:58N 37°55' E 023°34'0 0.0
2017-Sep-13 03:28N 37°55' E 023°34'0 0.0
2017-Sep-13 02:52N 37°55' E 023°34'0 0.0
2017-Sep-13 02:28N 37°55' E 023°34'0 0.1
2017-Sep-13 01:58N 37°55' E 023°34'0 0.0
2017-Sep-13 01:28N 37°55' E 023°34'0 0.0
2017-Sep-13 00:52N 37°55' E 023°34'0 0.0
2017-Sep-13 00:28N 37°55' E 023°34'0 0.0
2017-Sep-12 23:58N 37°55' E 023°34'0 0.2
2017-Sep-12 23:28N 37°55' E 023°34'2 4.3
2017-Sep-12 23:00N 37°54' E 023°36'3 5.5
2017-Sep-12 22:30N 37°53' E 023°39'1 1.1
2017-Sep-12 22:00N 37°53' E 023°38'1 1.1
2017-Sep-12 21:30N 37°53' E 023°38'0 0.5
2017-Sep-12 21:00N 37°53' E 023°38'4 7.2
2017-Sep-12 20:30N 37°50' E 023°40'4 8.3
2017-Sep-12 20:00N 37°46' E 023°42'4 8.6
2017-Sep-12 19:30N 37°42' E 023°45'4 7.9
2017-Sep-12 19:00N 37°40' E 023°49'4 8.6
2017-Sep-12 18:30N 37°39' E 023°54'  
2017-Sep-09 10:40N 39°54' E 024°00'1 8.8
2017-Sep-09 10:30N 39°54' E 024°02'4 8.9
2017-Sep-09 10:00N 39°55' E 024°08'5 9.1
2017-Sep-09 09:29N 39°56' E 024°14'6 9.1
2017-Sep-09 08:53N 39°57' E 024°21'9 8.9
2017-Sep-09 07:53N 39°58' E 024°32'4 9.4
2017-Sep-09 07:30N 39°59' E 024°37'5 9.6
2017-Sep-09 06:59N 39°60' E 024°43'5 9.5
2017-Sep-09 06:30N 40°01' E 024°49'5 9.1
2017-Sep-09 06:00N 40°01' E 024°55'5 8.9
2017-Sep-09 05:28N 40°02' E 025°01'14 8.6
2017-Sep-09 03:48N 40°04' E 025°20'6 8.6
2017-Sep-09 03:08N 40°04' E 025°27'2 8.9
2017-Sep-09 02:56N 40°04' E 025°29'6 9.1
2017-Sep-09 02:18N 40°04' E 025°37'5 8.9
2017-Sep-09 01:43N 40°03' E 025°43'  

Dump ship's entire track history